createdAt,value
2019-03-22T00:00:17.636Z,21.10
2019-03-22T00:04:18.162Z,28.63
2019-03-22T00:08:18.798Z,24.10
2019-03-22T00:12:17.387Z,29.40
2019-03-22T00:16:18.695Z,33.67
2019-03-22T00:20:17.257Z,30.57
2019-03-22T00:24:15.753Z,38.33
2019-03-22T00:28:14.306Z,26.07
2019-03-22T00:32:12.870Z,35.47
2019-03-22T00:36:13.405Z,35.30
2019-03-22T00:40:12.482Z,31.53
2019-03-22T00:44:13.018Z,30.80
2019-03-22T00:48:12.014Z,34.87
2019-03-22T00:52:10.559Z,28.87
2019-03-22T00:56:09.187Z,38.10
2019-03-22T01:00:13.285Z,31.90
2019-03-22T01:04:14.606Z,27.77
2019-03-22T01:08:13.145Z,30.23
2019-03-22T01:12:11.718Z,30.57
2019-03-22T01:16:10.863Z,29.03
2019-03-22T01:20:13.247Z,29.73
2019-03-22T01:24:11.833Z,29.47
2019-03-22T01:28:10.405Z,27.73
2019-03-22T01:32:08.983Z,30.07
2019-03-22T01:36:07.510Z,29.00
2019-03-22T01:40:07.936Z,31.30
2019-03-22T01:44:06.497Z,30.33
2019-03-22T01:48:08.027Z,30.97
2019-03-22T01:52:06.417Z,29.97
2019-03-22T01:56:05.285Z,39.67
2019-03-22T02:00:07.927Z,44.83
2019-03-22T02:04:06.577Z,38.73
2019-03-22T02:08:05.073Z,48.90
2019-03-22T02:12:03.616Z,40.77
2019-03-22T02:16:02.213Z,41.23
2019-03-22T02:20:00.758Z,45.23
2019-03-22T02:23:59.323Z,37.83
2019-03-22T02:28:04.084Z,34.60
2019-03-22T02:31:58.391Z,38.67
2019-03-22T02:35:56.961Z,43.90
2019-03-22T02:39:58.447Z,39.13
2019-03-22T02:43:57.021Z,35.80
2019-03-22T02:47:55.569Z,36.37
2019-03-22T02:51:54.196Z,33.10
2019-03-22T02:55:52.791Z,35.57
2019-03-22T02:59:51.307Z,38.80
2019-03-22T03:03:49.873Z,33.30
2019-03-22T03:07:48.430Z,33.53
2019-03-22T03:11:47.101Z,31.60
2019-03-22T03:15:45.703Z,33.90
2019-03-22T03:19:44.230Z,36.53
2019-03-22T03:23:44.809Z,36.20
2019-03-22T03:27:43.557Z,41.40
2019-03-22T03:31:42.115Z,40.97
2019-03-22T03:35:40.678Z,39.63
2019-03-22T03:39:39.340Z,34.57
2019-03-22T03:43:37.989Z,37.93
2019-03-22T03:47:36.478Z,37.37
2019-03-22T03:51:36.675Z,33.77
2019-03-22T03:55:35.592Z,38.70
2019-03-22T03:59:35.680Z,41.83
2019-03-22T04:03:34.301Z,43.47
2019-03-22T04:07:32.877Z,37.73
2019-03-22T04:11:31.757Z,41.93
2019-03-22T04:15:30.323Z,39.17
2019-03-22T04:19:30.143Z,40.83
2019-03-22T04:23:28.973Z,39.60
2019-03-22T04:27:27.542Z,44.00
2019-03-22T04:31:26.158Z,43.87
2019-03-22T04:35:25.033Z,43.93
2019-03-22T04:39:23.577Z,39.40
2019-03-22T04:43:22.056Z,45.97
2019-03-22T04:47:22.061Z,41.17
2019-03-22T04:51:21.057Z,41.97
2019-03-22T04:55:22.750Z,37.53
2019-03-22T04:59:22.558Z,38.97
2019-03-22T05:03:22.068Z,47.43
2019-03-22T05:07:30.906Z,39.03
2019-03-22T05:11:30.227Z,39.80
2019-03-22T05:15:31.625Z,41.40
2019-03-22T05:19:33.254Z,38.67
2019-03-22T05:23:34.331Z,44.03
2019-03-22T05:27:35.509Z,40.37
2019-03-22T05:31:58.132Z,41.80
2019-03-22T05:35:56.959Z,36.47
2019-03-22T05:39:55.448Z,40.57
2019-03-22T05:43:54.009Z,37.60
2019-03-22T05:47:55.662Z,41.67
2019-03-22T05:52:00.182Z,41.27
2019-03-22T05:55:58.678Z,36.00
2019-03-22T05:59:57.247Z,37.23
2019-03-22T06:03:55.738Z,38.10
2019-03-22T06:07:54.941Z,34.67
2019-03-22T06:11:54.250Z,53.67
2019-03-22T06:15:52.790Z,37.47
2019-03-22T06:19:51.379Z,32.53
2019-03-22T06:23:49.945Z,36.37
2019-03-22T06:27:48.459Z,31.60
2019-03-22T06:31:46.997Z,36.07
2019-03-22T06:35:45.562Z,39.57
2019-03-22T06:39:44.153Z,35.27
2019-03-22T06:43:42.688Z,34.00
2019-03-22T06:47:41.175Z,33.27
2019-03-22T06:51:39.737Z,41.63
2019-03-22T06:55:38.287Z,30.73
2019-03-22T06:59:42.417Z,33.77
2019-03-22T07:03:41.057Z,36.87
2019-03-22T07:07:39.594Z,42.37
2019-03-22T07:11:41.667Z,39.23
2019-03-22T07:15:38.359Z,33.17
2019-03-22T07:19:36.827Z,37.27
2019-03-22T07:23:35.340Z,32.90
2019-03-22T07:27:33.889Z,39.20
2019-03-22T07:31:32.450Z,38.40
2019-03-22T07:35:31.039Z,35.57
2019-03-22T07:39:30.159Z,35.47
2019-03-22T07:43:28.743Z,30.27
2019-03-22T07:47:27.288Z,36.73
2019-03-22T07:51:26.543Z,29.47
2019-03-22T07:55:25.046Z,39.23
2019-03-22T07:59:23.591Z,35.20
2019-03-22T08:03:22.660Z,23.53
2019-03-22T08:07:21.275Z,30.53
2019-03-22T08:11:19.817Z,30.70
2019-03-22T08:15:27.049Z,27.17
2019-03-22T08:19:25.695Z,25.17
2019-03-22T08:23:24.314Z,23.23
2019-03-22T08:27:22.881Z,26.57
2019-03-22T08:31:24.407Z,26.33
2019-03-22T08:35:23.006Z,24.17
2019-03-22T08:39:21.615Z,23.77
2019-03-22T08:43:22.619Z,20.50
2019-03-22T08:47:32.825Z,21.00
2019-03-22T08:51:21.799Z,23.67
2019-03-22T08:55:20.390Z,23.40
2019-03-22T08:59:18.963Z,23.90
2019-03-22T09:03:17.565Z,20.90
2019-03-22T09:07:16.150Z,21.10
2019-03-22T09:11:14.761Z,18.57
2019-03-22T09:15:14.269Z,18.43
2019-03-22T09:19:12.822Z,17.53
2019-03-22T09:23:15.592Z,23.17
2019-03-22T09:27:14.126Z,22.30
2019-03-22T09:31:12.690Z,19.93
2019-03-22T09:35:11.341Z,23.27
2019-03-22T09:39:09.982Z,16.77
2019-03-22T09:43:08.572Z,22.07
2019-03-22T09:47:08.224Z,17.73
2019-03-22T09:51:06.948Z,20.23
2019-03-22T09:55:13.404Z,19.60
2019-03-22T09:59:06.686Z,20.03
2019-03-22T10:03:05.753Z,16.07
2019-03-22T10:07:04.411Z,13.97
2019-03-22T10:11:03.049Z,17.43
2019-03-22T10:15:01.635Z,16.17
2019-03-22T10:19:03.226Z,10.50
2019-03-22T10:23:01.863Z,12.70
2019-03-22T10:27:05.000Z,13.37
2019-03-22T10:31:03.546Z,12.37
2019-03-22T10:35:02.142Z,11.83
2019-03-22T10:39:00.647Z,10.87
2019-03-22T10:42:59.194Z,9.47
2019-03-22T10:46:58.235Z,9.53
2019-03-22T10:50:56.801Z,13.27
2019-03-22T10:54:56.922Z,12.13
2019-03-22T10:58:55.470Z,9.93
2019-03-22T11:02:54.306Z,9.60
2019-03-22T11:06:58.152Z,8.63
2019-03-22T11:10:56.739Z,6.50
2019-03-22T11:14:55.383Z,12.90
2019-03-22T11:18:53.954Z,9.87
2019-03-22T11:22:52.458Z,11.43
2019-03-22T11:26:51.063Z,12.00
2019-03-22T11:30:49.554Z,8.00
2019-03-22T11:34:48.129Z,9.50
2019-03-22T11:38:49.314Z,11.57
2019-03-22T11:42:47.892Z,13.13
2019-03-22T11:46:46.532Z,14.73
2019-03-22T11:50:45.098Z,10.17
2019-03-22T11:54:43.743Z,12.70
2019-03-22T11:58:42.305Z,12.33
2019-03-22T12:02:41.218Z,15.70
2019-03-22T12:06:39.783Z,12.77
2019-03-22T12:10:40.254Z,11.50
2019-03-22T12:14:54.919Z,8.53
2019-03-22T12:18:53.506Z,11.67
2019-03-22T12:22:54.354Z,9.47
2019-03-22T12:26:54.382Z,11.53
2019-03-22T12:30:52.967Z,14.67
2019-03-22T12:34:51.536Z,8.20
2019-03-22T12:38:50.068Z,11.27
2019-03-22T12:42:48.814Z,6.73
2019-03-22T12:46:49.179Z,7.07
2019-03-22T12:50:47.609Z,7.70
2019-03-22T12:54:46.196Z,6.73
2019-03-22T12:58:44.876Z,7.77
2019-03-22T13:02:43.523Z,9.10
2019-03-22T13:06:42.094Z,7.87
2019-03-22T13:10:40.778Z,7.20
2019-03-22T13:14:39.333Z,7.00
2019-03-22T13:18:38.223Z,6.40
2019-03-22T13:22:36.785Z,10.07
2019-03-22T13:26:35.381Z,8.23
2019-03-22T13:30:35.945Z,8.60
2019-03-22T13:34:34.947Z,9.50
2019-03-22T13:38:33.569Z,8.00
2019-03-22T13:42:32.138Z,9.43
2019-03-22T13:46:39.740Z,8.40
2019-03-22T13:50:30.888Z,6.23
2019-03-22T13:54:29.444Z,6.27
2019-03-22T13:58:28.009Z,8.10
2019-03-22T14:02:28.878Z,8.37
2019-03-22T14:06:27.456Z,5.17
2019-03-22T14:10:30.580Z,4.70
2019-03-22T14:14:29.158Z,6.00
2019-03-22T14:18:27.744Z,3.37
2019-03-22T14:22:26.273Z,4.73
2019-03-22T14:26:24.914Z,7.10
2019-03-22T14:30:23.478Z,3.20
2019-03-22T14:34:22.517Z,5.03
2019-03-22T14:38:21.102Z,4.43
2019-03-22T14:42:19.722Z,8.07
2019-03-22T14:46:18.284Z,6.57
2019-03-22T14:50:16.754Z,3.30
2019-03-22T14:54:15.321Z,6.20
2019-03-22T14:58:13.882Z,4.37
2019-03-22T15:02:12.444Z,4.63
2019-03-22T15:06:14.094Z,4.03
2019-03-22T15:10:13.397Z,3.57
2019-03-22T15:14:28.840Z,3.80
2019-03-22T15:18:31.703Z,4.37
2019-03-22T15:22:48.116Z,2.13
2019-03-22T15:26:48.299Z,2.90
2019-03-22T15:30:57.594Z,4.70
2019-03-22T15:35:15.417Z,4.17
2019-03-22T15:39:19.408Z,2.65
2019-03-22T15:43:18.357Z,2.00
2019-03-22T15:47:17.253Z,2.90
2019-03-22T15:51:15.978Z,3.90
2019-03-22T15:55:19.950Z,4.35
2019-03-22T15:59:18.526Z,1.98
2019-03-22T16:03:17.098Z,6.62
2019-03-22T16:07:15.966Z,4.47
2019-03-22T16:11:14.499Z,1.95
2019-03-22T16:15:13.828Z,2.12
2019-03-22T16:19:12.762Z,5.55
2019-03-22T16:23:11.383Z,3.98
2019-03-22T16:27:10.008Z,3.52
2019-03-22T16:31:14.638Z,5.12
2019-03-22T16:35:13.439Z,4.12
2019-03-22T16:39:14.948Z,3.10
2019-03-22T16:43:20.703Z,3.15
2019-03-22T16:47:19.354Z,1.98
2019-03-22T16:51:17.941Z,4.35
2019-03-22T16:55:16.484Z,4.35
2019-03-22T16:59:15.383Z,4.20
2019-03-22T17:03:14.036Z,4.12
2019-03-22T17:07:12.520Z,4.67
2019-03-22T17:11:11.036Z,2.70
2019-03-22T17:15:10.127Z,4.93
2019-03-22T17:19:08.612Z,2.33
2019-03-22T17:23:07.195Z,3.20
2019-03-22T17:27:05.805Z,2.30
2019-03-22T17:31:04.443Z,3.47
2019-03-22T17:35:05.180Z,4.33
2019-03-22T17:39:05.289Z,3.90
2019-03-22T17:43:04.443Z,1.40
2019-03-22T17:47:02.975Z,2.47
2019-03-22T17:51:01.567Z,4.30
2019-03-22T17:55:00.308Z,3.53
2019-03-22T17:58:59.180Z,2.20
2019-03-22T18:02:57.668Z,3.97
2019-03-22T18:06:56.614Z,2.50
2019-03-22T18:10:55.212Z,3.33
2019-03-22T18:14:53.764Z,3.83
2019-03-22T18:18:54.268Z,3.03
2019-03-22T18:22:52.881Z,9.07
2019-03-22T18:26:51.458Z,6.40
2019-03-22T18:30:49.956Z,3.13
2019-03-22T18:34:48.550Z,6.60
2019-03-22T18:38:47.080Z,5.33
2019-03-22T18:42:45.972Z,5.23
2019-03-22T18:46:44.484Z,2.70
2019-03-22T18:50:43.036Z,4.87
2019-03-22T18:54:41.550Z,4.00
2019-03-22T18:58:40.135Z,5.93
2019-03-22T19:02:38.718Z,3.93
2019-03-22T19:06:37.279Z,2.97
2019-03-22T19:10:35.844Z,4.30
2019-03-22T19:14:34.315Z,6.33
2019-03-22T19:18:32.952Z,7.13
2019-03-22T19:22:31.791Z,6.30
2019-03-22T19:26:30.664Z,6.93
2019-03-22T19:30:29.459Z,7.80
2019-03-22T19:34:27.980Z,9.37
2019-03-22T19:38:26.536Z,5.60
2019-03-22T19:42:25.016Z,4.03
2019-03-22T19:46:23.902Z,7.17
2019-03-22T19:50:22.524Z,5.37
2019-03-22T19:54:21.115Z,6.03
2019-03-22T19:58:19.641Z,4.80
2019-03-22T20:02:21.244Z,6.50
2019-03-22T20:06:19.820Z,3.93
2019-03-22T20:10:20.385Z,6.57
2019-03-22T20:14:18.974Z,6.73
2019-03-22T20:18:17.559Z,5.63
2019-03-22T20:22:16.103Z,3.20
2019-03-22T20:26:14.584Z,4.77
2019-03-22T20:30:15.861Z,5.33
2019-03-22T20:34:14.511Z,6.03
2019-03-22T20:38:13.025Z,2.83
2019-03-22T20:42:11.627Z,5.40
2019-03-22T20:46:13.145Z,5.13
2019-03-22T20:50:13.496Z,2.90
2019-03-22T20:58:29.604Z,4.50
2019-03-22T21:02:29.323Z,7.10
2019-03-22T21:06:28.280Z,2.47
2019-03-22T21:10:26.879Z,5.87
2019-03-22T21:14:25.975Z,7.57
2019-03-22T21:18:24.566Z,2.87
2019-03-22T21:22:23.112Z,6.43
2019-03-22T21:26:21.975Z,7.73
2019-03-22T21:30:22.440Z,8.00
2019-03-22T21:34:20.686Z,6.63
2019-03-22T21:38:19.247Z,13.40
2019-03-22T21:42:17.746Z,7.70
2019-03-22T21:46:16.287Z,7.53
2019-03-22T21:50:14.843Z,8.47
2019-03-22T21:54:13.417Z,6.33
2019-03-22T21:58:11.972Z,6.77
2019-03-22T22:02:10.633Z,7.10
2019-03-22T22:06:09.182Z,6.03
2019-03-22T22:10:09.923Z,6.83
2019-03-22T22:14:08.444Z,6.50
2019-03-22T22:18:14.352Z,6.23
2019-03-22T22:22:12.897Z,7.00
2019-03-22T22:26:11.568Z,7.63
2019-03-22T22:30:13.910Z,6.33
2019-03-22T22:34:12.494Z,8.33
2019-03-22T22:38:11.044Z,6.70
2019-03-22T22:46:13.344Z,7.67
2019-03-22T22:50:12.511Z,9.70
2019-03-22T22:54:11.027Z,8.97
2019-03-22T22:58:09.574Z,8.97
2019-03-22T23:02:08.225Z,12.17
2019-03-22T23:06:09.633Z,7.80
2019-03-22T23:10:07.180Z,11.60
2019-03-22T23:14:05.743Z,8.40
2019-03-22T23:18:04.484Z,8.77
2019-03-22T23:22:03.074Z,11.77
2019-03-22T23:26:01.574Z,9.27
2019-03-22T23:30:00.361Z,9.13
2019-03-22T23:34:21.634Z,11.90
2019-03-22T23:37:59.316Z,9.57
2019-03-22T23:41:57.894Z,11.87
2019-03-22T23:45:56.462Z,8.47
2019-03-22T23:49:55.030Z,7.50
2019-03-22T23:53:53.588Z,9.77
2019-03-22T23:57:52.149Z,11.33
